Terminal Aerodrome Forecast
Issued by NWS Tulsa, OK

Home | Current Version | Previous Version | Text Only | Print | Product List | Glossary On
Versions: 1 2 3 4 5 6 7 8 9 10 11 12 13 14
413
FTUS44 KTSA 241120
TAFFSM
TAF
KFSM 241120Z 2412/2512 08006KT P6SM BKN035
     FM242000 15008KT P6SM VCTS OVC035CB
     FM250000 13008KT P6SM BKN050
     FM250800 09005KT P6SM VCTS BKN035CB=

USA.gov is the U.S. government's official web portal to all federal, state and local government web resources and services.